PAKT/KTN METAR and TAF weather

Enter ICAO airport designator
Station Type Date Time Source
PAKT METAR 2020/06/03 16:53 UTC NOAA

PAKT 031653Z 12008KT 10SM SCT015 BKN035 10/07 A3016 RMK RAE1554 SLP212 HARBOR WIND 14009KT P0000 T01000072 VIA AUTODIAL


Station Type Date Time Source
PAKT Decoded METAR 2020/06/03 16:53 UTC NOAA

KETCHIKAN INTERNATIONAL AIRPORT , AK, United States (PAKT) 55-21N 131-43W 25M
Jun 03, 2020 - 12:53 PM EDT / 2020.06.03 1653 UTC
Wind: from the ESE (120 degrees) at 9 MPH (8 KT):0
Visibility: 10 mile(s):0
Sky conditions: mostly cloudy
Precipitation last hour: A trace
Temperature: 50.0 F (10.0 C)
Dew Point: 45.0 F (7.2 C)
Relative Humidity: 82%
Pressure (altimeter): 30.16 in. Hg (1021 hPa)
ob: PAKT 031653Z 12008KT 10SM SCT015 BKN035 10/07 A3016 RMK RAE1554 SLP212 HARBOR WIND 14009KT P0000 T01000072 VIA AUTODIAL
cycle: 17

Station Type Date Time Source
PAKT TAF 2020/06/03 12:39 UTC NOAA

TAF PAKT 031137Z 0312/0412 13006KT P6SM VCSH SCT035 OVC050
FM031800 13009KT P6SM VCSH SCT025 BKN050
FM040400 13004KT P6SM SCT025 BKN060
AMD LTD TO CLD VIS AND WIND 0312/0315

Example: see airport list